Восточный

Карта отелей и гостиниц, располагающихся рядом с аэропортом Восточный :

Восточный
Ульяновск
Ульяновская область 54° 24' 3.96" N, 48° 48' 10.1988" E
Код аэродрома ИКАО
UWLW
Код аэродрома RU
УВЛВ
Координаты
N54.40110° E048.80283°
Превышение над уровнем моря
77
Основная полоса
02/20
Курс магнитный
018,8/198,8
Длина основной ВПП
5000
Ширина основной ВПП
105
Покрытие основной ВПП
Твёрдое (асфальтобетон)
Освещение ВПП
Постоянное
Тип: 
Аэродром
Класс аэродрома: 
Международный
Принадлежность: 
ГА
Статус: 
Действующий
Сайт: 
http://ulvost.aero
E-mail аэродрома: 
info@ulvost.aero
Страна: 
Россия
Регион: 
Ульяновская область
Город: 
Ульяновск
Дополнительная информация: 
Оператор: с 2008 г. обособленное структурное подразделение АО «Авиастар-СП». Нкр.=(500)м. Военный индекс: XWLW / ЬВЛВ.
Погода: 

Авиационная погода в Ульяновске

Регион: 
Погода METAR: 
UWLW 261800Z 16008MPS 1300 1100S R20/P2000D SN BLSN OVC006 M11/M13 Q1003 R20/494030 NOSIG RMK QFE747
Время наблюдения
2021-02-26T18:00:00Z
Температура C
-11.0
Точка росы
-13.0
Направление ветра
160
Скорость ветра (узлы)
16
Метео видимость
0.81
Явления погоды
BLSN SN
Условия полета
LIFR
Аэропорт подробнее: 

Найти трансфер

С помощью этой формы Вы можете найти трансфер из аэропорта Восточный в город, аэропорт или вокзал:

Карта места

Javascript is required to view this map.

Погода в аэропортах:

Авиационная погода в аэропорту Имени Германа Титова

Регион: 
Погода METAR: 
UNBB 261730Z 23005MPS 9999 -SN BKN040 M22/M27 Q1034 R24/410250 NOSIG RMK QFE753
Время наблюдения
2021-02-26T17:30:00Z
Температура C
-22.0
Точка росы
-27.0
Направление ветра
230
Скорость ветра (узлы)
10
Метео видимость
6.21
Явления погоды
-SN
Условия полета
VFR
Аэропорт подробнее: 

Авиационная погода в Берлевоге

Регион: 
Погода METAR: 
ENBV 261750Z 33019KT 9999 -SHSN BKN020 01/M03 Q1005
Время наблюдения
2021-02-26T17:50:00Z
Температура C
1.0
Точка росы
-3.0
Направление ветра
330
Скорость ветра (узлы)
19
Метео видимость
6.21
Явления погоды
-SHSN
Условия полета
MVFR

Авиационная погода в аэропорту Центральный

Регион: 
Погода METAR: 
UNOO 261730Z 19001MPS 2600 FU NSC M29/M32 Q1031 R25/820555 NOSIG RMK QFE765
Время наблюдения
2021-02-26T17:30:00Z
Температура C
-29.0
Точка росы
-32.0
Направление ветра
190
Скорость ветра (узлы)
2
Метео видимость
1.62
Явления погоды
FU
Условия полета
IFR
Аэропорт подробнее: 

Авиационная погода в Элисте

Регион: 
Погода METAR: 
URWI 261730Z 27012MPS 0200 0150W R27/0200N -DZ FG VV001 02/01 Q1018 TEMPO 0050 FG RMK QBB050 OBST OBSC
Время наблюдения
2021-02-26T17:30:00Z
Температура C
2.0
Точка росы
1.0
Направление ветра
270
Скорость ветра (узлы)
23
Метео видимость
0.12
Явления погоды
-DZ FG
Условия полета
LIFR
Аэропорт подробнее: